KOLF/OLF METAR and TAF weather

Enter ICAO airport designator
Station Type Date Time Source
KOLF METAR 2021/09/28 04:53 UTC NOAA

KOLF 280453Z AUTO 05004KT 9SM CLR 12/M01 A2969 RMK AO2 SLP051 T01171006


Station Type Date Time Source
KOLF Decoded METAR 2021/09/28 04:53 UTC NOAA

WOLF POINT CLAYTON AIRPORT, MT, United States (KOLF) 48-06N 105-35W 604M
Sep 28, 2021 - 12:53 AM EDT / 2021.09.28 0453 UTC
Wind: from the NE (050 degrees) at 5 MPH (4 KT):0
Visibility: 9 mile(s):0
Sky conditions: clear
Temperature: 53.1 F (11.7 C)
Dew Point: 30.9 F (-0.6 C)
Relative Humidity: 42%
Pressure (altimeter): 29.69 in. Hg (1005 hPa)
ob: KOLF 280453Z AUTO 05004KT 9SM CLR 12/M01 A2969 RMK AO2 SLP051 T01171006
cycle: 5

Station Type Date Time Source
KOLF TAF 2021/09/27 18:22 UTC NOAA

TAF KOLF 271720Z 2718/2818 26010KT P6SM FEW200
FM280100 VRB04KT P6SM FEW250

Example: see airport list